Time;durP1;ratioP1;P1;durP2;ratioP2;P2;SDS_P1;SDS_P2;PMS_P1;PMS_P2;Temp;Humidity;BMP_temperature;BMP_pressure;BME280_temperature;BME280_humidity;BME280_pressure;Samples;Min_cycle;Max_cycle;Signal;HPM_P1;HPM_P2
2022/07/16 00:03:16;;;;;;;3.38;2.60;;;;;;;16.86;58.78;101879.56;3596181;39;20062;-64
2022/07/16 00:05:43;;;;;;;3.25;2.35;;;;;;;16.89;58.22;101882.91;3597420;39;20075;-64
2022/07/16 00:08:08;;;;;;;3.13;2.65;;;;;;;16.88;58.55;101886.63;3596749;39;20051;-64
2022/07/16 00:10:34;;;;;;;5.43;2.80;;;;;;;16.85;58.20;101881.41;3597057;39;20053;-64
2022/07/16 00:13:02;;;;;;;3.50;2.47;;;;;;;16.89;58.75;101882.91;3590335;39;20051;-64
2022/07/16 00:15:29;;;;;;;7.57;3.00;;;;;;;16.96;58.35;101872.47;3597497;39;20055;-64
2022/07/16 00:20:39;;;;;;;7.80;3.05;;;;;;;16.82;58.05;101857.19;3599055;39;20050;-64
2022/07/16 00:23:06;;;;;;;6.13;3.47;;;;;;;17.02;57.79;101882.03;3598012;39;20047;-64
2022/07/16 00:25:35;;;;;;;3.80;2.67;;;;;;;16.87;57.50;101871.31;3596672;39;20192;-64
2022/07/16 00:28:01;;;;;;;3.35;2.78;;;;;;;17.01;57.41;101880.31;3596929;39;20059;-64
2022/07/16 00:30:27;;;;;;;6.57;3.30;;;;;;;16.98;57.34;101894.09;3598374;39;20059;-63
2022/07/16 00:32:53;;;;;;;5.30;3.10;;;;;;;16.92;57.94;101881.81;3597804;39;20120;-64
2022/07/16 00:35:19;;;;;;;8.88;3.60;;;;;;;16.97;57.42;101889.63;3595528;39;20071;-64
2022/07/16 00:37:45;;;;;;;6.63;2.80;;;;;;;16.98;58.18;101891.38;3598174;39;20303;-64
2022/07/16 00:40:11;;;;;;;5.32;2.90;;;;;;;16.98;57.71;101880.53;3598610;39;20048;-64
2022/07/16 00:42:37;;;;;;;4.97;2.85;;;;;;;17.00;58.05;101889.41;3596395;39;20068;-64
2022/07/16 00:45:04;;;;;;;6.80;3.00;;;;;;;17.00;57.60;101889.41;3597509;39;20151;-63
2022/07/16 00:47:30;;;;;;;6.72;3.20;;;;;;;17.01;57.96;101891.19;3598376;39;20035;-64
2022/07/16 00:49:56;;;;;;;5.30;3.33;;;;;;;17.06;58.06;101880.81;3598386;39;20055;-64
2022/07/16 00:52:23;;;;;;;5.50;3.47;;;;;;;17.08;57.48;101881.59;3596764;39;20158;-64
2022/07/16 00:54:49;;;;;;;10.20;3.70;;;;;;;17.10;58.18;101887.78;3599389;39;20072;-63
2022/07/16 00:57:15;;;;;;;5.80;3.35;;;;;;;17.12;58.02;101888.53;3598132;39;20064;-64
2022/07/16 00:59:41;;;;;;;4.82;3.10;;;;;;;16.94;57.92;101859.03;3598265;39;20390;-64
2022/07/16 01:02:06;;;;;;;7.30;3.03;;;;;;;16.96;57.62;101860.75;3596588;39;20062;-64
2022/07/16 01:04:33;;;;;;;4.72;2.95;;;;;;;17.20;57.33;101885.28;3596287;39;20153;-64
2022/07/16 01:07:01;;;;;;;6.72;3.00;;;;;;;17.08;57.95;101851.72;3596710;39;20063;-64
2022/07/16 01:09:27;;;;;;;6.38;3.00;;;;;;;17.28;57.36;101882.84;3595555;39;20439;-64
2022/07/16 01:11:54;;;;;;;5.70;3.38;;;;;;;16.79;57.11;101791.38;3598004;39;20121;-64
2022/07/16 01:14:21;;;;;;;4.28;2.83;;;;;;;17.31;57.65;101886.19;3597831;39;20071;-63
2022/07/16 01:16:47;;;;;;;4.70;2.97;;;;;;;17.28;57.70;101875.56;3595275;39;20068;-64
2022/07/16 01:19:13;;;;;;;6.53;3.20;;;;;;;17.32;57.61;101874.38;3595969;39;20059;-64
2022/07/16 01:21:40;;;;;;;4.47;2.80;;;;;;;17.31;57.62;101866.31;3596930;39;20055;-64
2022/07/16 01:24:06;;;;;;;10.27;3.10;;;;;;;17.33;58.04;101870.66;3596494;39;20063;-64
2022/07/16 01:26:32;;;;;;;4.50;2.70;;;;;;;17.13;57.63;101833.22;3596060;39;20052;-64
2022/07/16 01:28:57;;;;;;;5.10;2.92;;;;;;;16.85;57.19;101797.22;3596956;39;20310;-64
2022/07/16 01:31:23;;;;;;;4.00;3.10;;;;;;;17.35;57.50;101868.72;3596889;39;20052;-64
2022/07/16 01:34:24;;;;;;;4.88;3.20;;;;;;;17.31;56.69;101872.63;3595179;39;20064;-64
2022/07/16 01:36:35;;;;;;;6.40;2.70;;;;;;;17.34;56.67;101880.53;3596399;39;20070;-64
2022/07/16 01:39:00;;;;;;;4.30;2.72;;;;;;;17.31;56.24;101878.06;3596983;39;20638;-64
2022/07/16 01:41:26;;;;;;;5.00;2.70;;;;;;;17.32;56.66;101879.81;3596706;39;20051;-63
2022/07/16 01:43:52;;;;;;;4.13;3.03;;;;;;;17.35;56.30;101881.44;3597310;39;20378;-63
2022/07/16 01:46:17;;;;;;;6.18;2.72;;;;;;;17.35;56.58;101890.47;3596028;39;20071;-63
2022/07/16 01:48:43;;;;;;;4.47;2.70;;;;;;;17.32;56.86;101893.41;3596465;39;20054;-64
2022/07/16 01:51:08;;;;;;;4.28;2.65;;;;;;;17.29;56.31;101890.91;3595240;39;20504;-63
2022/07/16 01:53:34;;;;;;;6.07;2.85;;;;;;;17.22;56.58;101884.19;3599107;39;20058;-64
2022/07/16 01:56:00;;;;;;;4.53;2.70;;;;;;;17.22;57.17;101884.19;3597527;39;20060;-64
2022/07/16 01:58:26;;;;;;;5.63;2.60;;;;;;;17.19;57.36;101884.41;3596274;39;20075;-64
2022/07/16 02:00:53;;;;;;;4.05;2.40;;;;;;;17.20;56.74;101891.56;3596599;39;20054;-64
2022/07/16 02:03:19;;;;;;;4.70;2.30;;;;;;;17.12;57.08;101866.78;3594990;39;20146;-64
2022/07/16 02:05:46;;;;;;;7.82;2.40;;;;;;;16.89;57.04;101828.59;3594873;39;20143;-63
2022/07/16 02:08:11;;;;;;;3.70;2.45;;;;;;;17.18;56.69;101871.78;3598564;39;20044;-64
2022/07/16 02:10:38;;;;;;;4.90;2.67;;;;;;;17.19;57.29;101873.53;3596620;39;20062;-64
2022/07/16 02:13:05;;;;;;;5.50;3.03;;;;;;;17.20;56.86;101869.84;3596878;39;20127;-63
2022/07/16 02:15:31;;;;;;;3.65;3.05;;;;;;;17.18;57.21;101867.22;3598221;39;20052;-64
2022/07/16 02:17:57;;;;;;;3.88;2.53;;;;;;;17.17;57.09;101864.63;3597085;39;20081;-64
2022/07/16 02:20:23;;;;;;;5.63;3.00;;;;;;;17.20;57.27;101869.84;3600518;39;20074;-63
2022/07/16 02:22:48;;;;;;;5.82;2.95;;;;;;;17.17;56.87;101864.63;3597819;39;20063;-64
2022/07/16 02:25:14;;;;;;;3.67;2.53;;;;;;;17.16;57.75;101874.63;3596307;39;20118;-64
2022/07/16 02:30:28;;;;;;;2.95;2.60;;;;;;;17.22;57.45;101862.44;3597885;39;20055;-64
2022/07/16 02:32:54;;;;;;;6.50;3.38;;;;;;;17.18;57.13;101859.06;3595345;39;20060;-64
2022/07/16 02:35:19;;;;;;;4.88;2.78;;;;;;;17.19;56.91;101868.09;3596664;39;20086;-64
2022/07/16 02:37:45;;;;;;;6.07;3.15;;;;;;;17.20;57.10;101864.41;3597492;39;20125;-64
2022/07/16 02:40:11;;;;;;;4.60;3.25;;;;;;;17.23;57.03;101864.19;3595859;39;20061;-64
2022/07/16 02:42:37;;;;;;;3.92;2.83;;;;;;;16.52;56.90;101743.47;3596932;39;20071;-64
2022/07/16 02:45:03;;;;;;;4.22;2.88;;;;;;;17.18;57.18;101866.34;3597085;39;20067;-63
2022/07/16 02:47:28;;;;;;;4.03;2.67;;;;;;;17.18;57.76;101858.19;3598700;39;20055;-64
2022/07/16 02:49:54;;;;;;;6.50;3.17;;;;;;;17.18;57.88;101855.47;3597782;39;20149;-64
2022/07/16 02:52:20;;;;;;;4.88;2.90;;;;;;;17.18;57.18;101861.78;3600583;39;20066;-63
2022/07/16 02:54:45;;;;;;;3.75;3.13;;;;;;;17.20;57.63;101852.66;3599709;39;20054;-63
2022/07/16 02:57:11;;;;;;;5.43;3.03;;;;;;;17.18;57.39;101861.78;3590253;39;20047;-64
2022/07/16 02:59:37;;;;;;;3.47;2.85;;;;;;;17.17;56.88;101859.19;3598014;39;20310;-64
2022/07/16 03:02:02;;;;;;;4.13;2.80;;;;;;;17.20;57.56;101866.25;3598132;39;20067;-64
2022/07/16 03:04:28;;;;;;;4.25;3.08;;;;;;;17.18;57.71;101863.63;3600085;39;20140;-63
2022/07/16 03:06:53;;;;;;;4.13;2.95;;;;;;;17.09;57.73;101850.72;3595726;39;20059;-64
2022/07/16 03:09:19;;;;;;;6.38;2.90;;;;;;;17.16;57.45;101871.91;3597148;39;20074;-64
2022/07/16 03:11:45;;;;;;;3.85;2.75;;;;;;;17.16;57.98;101884.63;3598316;39;20059;-64
2022/07/16 03:14:10;;;;;;;4.00;2.70;;;;;;;16.82;57.47;101826.44;3588275;39;20047;-64
2022/07/16 03:16:36;;;;;;;4.97;3.10;;;;;;;17.11;57.99;101870.50;3598876;39;20101;-64
2022/07/16 03:19:01;;;;;;;5.05;3.00;;;;;;;17.08;57.60;101870.72;3597306;39;20063;-64
2022/07/16 03:21:27;;;;;;;5.57;3.28;;;;;;;17.07;57.43;101874.44;3596588;39;20351;-64
2022/07/16 03:23:52;;;;;;;4.50;3.30;;;;;;;17.05;57.71;101876.38;3596434;39;20055;-64
2022/07/16 03:26:18;;;;;;;6.28;3.60;;;;;;;17.05;58.07;101870.94;3598388;39;20066;-63
2022/07/16 03:28:44;;;;;;;10.35;3.40;;;;;;;17.02;58.29;101876.59;3596167;39;20301;-64
2022/07/16 03:31:09;;;;;;;3.75;2.80;;;;;;;17.04;57.95;101871.94;3597760;39;20297;-64
2022/07/16 03:33:35;;;;;;;6.10;3.60;;;;;;;17.07;57.75;101880.72;3598028;39;20053;-64
2022/07/16 03:36:00;;;;;;;5.38;3.85;;;;;;;16.99;58.49;101883.13;3595821;39;20056;-64
2022/07/16 03:41:10;;;;;;;5.32;3.40;;;;;;;16.99;58.07;101893.13;3597648;39;20293;-64
2022/07/16 03:43:36;;;;;;;6.93;3.83;;;;;;;16.67;58.68;101836.53;3597335;39;20063;-64
2022/07/16 03:46:02;;;;;;;6.05;3.65;;;;;;;16.99;58.33;101895.84;3594295;39;20058;-64
2022/07/16 03:48:27;;;;;;;4.40;3.83;;;;;;;17.00;58.53;101894.84;3598838;39;20067;-64
2022/07/16 03:50:53;;;;;;;4.00;3.60;;;;;;;17.00;58.72;101895.75;3596780;39;20060;-64
2022/07/16 03:53:18;;;;;;;5.95;4.15;;;;;;;17.01;59.15;101897.47;3598078;39;20048;-64
2022/07/16 03:55:44;;;;;;;5.78;4.00;;;;;;;16.93;59.51;101891.72;3598764;39;20305;-64
2022/07/16 03:58:09;;;;;;;7.15;4.05;;;;;;;16.95;59.58;101892.47;3598170;39;20051;-64
2022/07/16 04:00:35;;;;;;;6.50;4.53;;;;;;;16.66;59.22;101843.81;3595803;39;20074;-65
2022/07/16 04:03:01;;;;;;;9.40;4.60;;;;;;;16.92;60.09;101893.56;3596500;39;20051;-65
2022/07/16 04:05:26;;;;;;;6.53;4.18;;;;;;;17.03;59.61;101905.50;3597202;39;20555;-65
2022/07/16 04:07:52;;;;;;;7.30;4.30;;;;;;;17.03;60.82;101905.50;3597197;39;20063;-65
2022/07/16 04:10:17;;;;;;;5.00;4.50;;;;;;;16.35;60.57;101784.53;3587720;39;20059;-64
2022/07/16 04:12:43;;;;;;;6.95;4.90;;;;;;;17.10;60.87;101912.25;3594339;39;20091;-64
2022/07/16 04:15:09;;;;;;;8.00;5.20;;;;;;;17.16;60.85;101907.22;3595797;39;20063;-64
2022/07/16 04:17:34;;;;;;;6.47;4.60;;;;;;;17.21;60.25;101915.03;3594340;39;20329;-64
2022/07/16 04:20:00;;;;;;;7.30;5.10;;;;;;;17.20;60.72;101907.88;3596140;39;20039;-65
2022/07/16 04:22:25;;;;;;;5.68;4.63;;;;;;;17.30;60.84;101917.09;3598388;39;20406;-65
2022/07/16 04:24:51;;;;;;;5.82;4.75;;;;;;;17.35;60.97;101919.50;3598737;39;20047;-65
2022/07/16 04:27:17;;;;;;;7.97;5.00;;;;;;;17.36;61.15;101916.66;3599698;39;20060;-64
2022/07/16 04:29:42;;;;;;;6.22;4.60;;;;;;;17.38;61.00;101917.41;3595775;39;20345;-64
2022/07/16 04:32:08;;;;;;;6.93;5.03;;;;;;;17.37;61.37;101909.34;3596717;39;20063;-64
2022/07/16 04:34:33;;;;;;;8.63;4.95;;;;;;;17.47;61.95;101909.53;3598469;39;20461;-65
2022/07/16 04:36:59;;;;;;;8.60;4.85;;;;;;;17.51;62.02;101911.09;3598329;39;20055;-65
2022/07/16 04:39:24;;;;;;;6.00;4.57;;;;;;;17.60;62.06;101921.25;3595852;39;20449;-64
2022/07/16 04:41:50;;;;;;;7.68;4.97;;;;;;;17.59;62.81;101919.53;3597268;39;20120;-64
2022/07/16 04:44:15;;;;;;;8.23;5.05;;;;;;;17.65;62.56;101935.38;3596059;39;20059;-64
2022/07/16 04:46:41;;;;;;;7.35;5.30;;;;;;;17.65;63.25;101927.22;3584238;39;20047;-64
2022/07/16 04:49:07;;;;;;;9.23;5.65;;;;;;;17.70;62.88;101933.19;3595781;39;20390;-65
2022/07/16 04:51:32;;;;;;;7.00;5.03;;;;;;;17.66;63.18;101926.22;3598227;39;20075;-64
2022/07/16 04:53:58;;;;;;;8.02;5.60;;;;;;;17.69;63.91;101936.03;3594886;39;20124;-65
2022/07/16 04:56:23;;;;;;;8.43;5.20;;;;;;;17.69;63.34;101931.44;3596801;39;20408;-64
2022/07/16 04:58:49;;;;;;;9.38;5.80;;;;;;;17.67;64.71;101933.44;3595750;39;20043;-64
2022/07/16 05:01:14;;;;;;;7.32;5.68;;;;;;;17.61;64.87;101928.44;3595709;39;20367;-65
2022/07/16 05:03:40;;;;;;;8.80;5.20;;;;;;;17.68;65.74;101943.31;3594528;39;20136;-65
2022/07/16 05:06:06;;;;;;;10.20;5.60;;;;;;;17.69;65.51;101944.19;3595053;39;20124;-64
2022/07/16 05:08:31;;;;;;;11.98;5.47;;;;;;;17.69;65.64;101942.31;3595319;39;20055;-62
2022/07/16 05:10:57;;;;;;;11.25;5.30;;;;;;;17.66;66.67;101947.13;3596841;39;20051;-65
2022/07/16 05:13:22;;;;;;;7.03;5.28;;;;;;;17.67;67.24;101948.88;3586336;39;20124;-65
2022/07/16 05:15:48;;;;;;;5.53;4.40;;;;;;;17.00;67.97;101832.38;3598173;39;20161;-64
2022/07/16 05:18:14;;;;;;;7.72;4.93;;;;;;;17.71;68.24;101951.25;3596687;39;20058;-62
2022/07/16 05:20:39;;;;;;;7.53;4.70;;;;;;;17.75;69.46;101951.88;3599040;39;20071;-64
2022/07/16 05:23:05;;;;;;;10.05;4.32;;;;;;;17.51;69.32;101914.66;3597815;39;20130;-62
2022/07/16 05:25:31;;;;;;;6.75;4.32;;;;;;;17.77;69.67;101953.53;3597738;39;20055;-64
2022/07/16 05:27:56;;;;;;;7.57;4.28;;;;;;;17.79;70.28;101965.19;3594014;39;20059;-65
2022/07/16 05:30:22;;;;;;;6.68;4.40;;;;;;;17.82;70.04;101970.41;3596984;39;20597;-63
2022/07/16 05:32:50;;;;;;;6.80;4.18;;;;;;;17.84;70.38;101962.13;3594954;39;20048;-63
2022/07/16 05:35:16;;;;;;;6.68;4.38;;;;;;;17.89;70.35;101965.38;3588532;39;20050;-63
2022/07/16 05:37:43;;;;;;;6.93;4.40;;;;;;;17.92;70.03;101972.41;3598256;39;20044;-64
2022/07/16 05:40:11;;;;;;;6.10;4.45;;;;;;;17.95;70.44;101964.91;3598439;39;20059;-65
2022/07/16 05:42:38;;;;;;;8.77;4.35;;;;;;;18.02;70.02;101970.75;3597590;39;20059;-65
2022/07/16 05:45:04;;;;;;;9.45;4.30;;;;;;;18.00;70.44;101962.69;3597395;39;20060;-64
2022/07/16 05:47:34;;;;;;;7.80;4.18;;;;;;;18.15;70.74;101977.00;3599415;39;20039;-64
2022/07/16 05:50:04;;;;;;;7.90;3.80;;;;;;;18.23;70.75;101974.56;3600146;39;20336;-64
2022/07/16 05:52:31;;;;;;;7.05;3.60;;;;;;;18.27;70.66;101976.09;3598454;39;20499;-64
2022/07/16 05:54:57;;;;;;;6.50;3.85;;;;;;;18.36;71.09;101981.78;3597743;39;20394;-64
2022/07/16 05:57:22;;;;;;;8.38;3.95;;;;;;;18.46;70.38;101977.41;3598518;39;20055;-63
2022/07/16 05:59:48;;;;;;;7.63;3.58;;;;;;;18.58;70.52;101976.44;3598628;39;20076;-63
2022/07/16 06:02:13;;;;;;;7.53;3.25;;;;;;;18.70;69.38;101980.94;3598357;39;20334;-62
2022/07/16 06:04:39;;;;;;;6.72;3.10;;;;;;;18.83;69.58;101982.75;3601159;39;20052;-61
2022/07/16 06:07:05;;;;;;;4.53;3.25;;;;;;;18.92;68.97;101987.47;3599616;39;20482;-61
2022/07/16 06:09:30;;;;;;;5.10;2.95;;;;;;;18.99;67.71;101996.88;3598634;39;20043;-63
2022/07/16 06:11:56;;;;;;;6.45;2.95;;;;;;;19.07;68.03;101999.88;3590720;39;20085;-64
2022/07/16 06:14:21;;;;;;;5.70;2.50;;;;;;;19.09;67.22;101987.00;3599247;39;20058;-63
2022/07/16 06:16:48;;;;;;;5.80;2.40;;;;;;;19.17;66.54;102003.63;3600406;39;20063;-63
2022/07/16 06:19:14;;;;;;;1.88;1.70;;;;;;;19.10;64.50;101980.56;3597587;39;20065;-61
2022/07/16 06:21:40;;;;;;;2.92;1.88;;;;;;;19.39;63.74;102016.41;3595175;39;20063;-64
2022/07/16 06:24:06;;;;;;;8.73;2.15;;;;;;;19.56;63.80;102009.56;3599994;39;20055;-65
2022/07/16 06:26:31;;;;;;;3.05;1.70;;;;;;;19.74;61.68;102011.84;3598636;39;20069;-65
2022/07/16 06:28:57;;;;;;;2.97;1.70;;;;;;;19.87;60.61;102018.03;3599875;39;20056;-62
2022/07/16 06:31:23;;;;;;;2.13;1.65;;;;;;;19.92;60.21;102022.13;3597726;39;20368;-63
2022/07/16 06:33:48;;;;;;;4.22;1.42;;;;;;;19.93;59.36;102022.97;3598820;39;20059;-62
2022/07/16 06:36:14;;;;;;;4.53;1.60;;;;;;;19.91;60.59;102024.97;3598878;39;20051;-62
2022/07/16 06:38:39;;;;;;;3.35;1.60;;;;;;;19.92;58.74;102026.72;3599560;39;20898;-63
2022/07/16 06:41:05;;;;;;;2.67;1.45;;;;;;;19.98;59.90;102026.22;3602278;39;20055;-64
2022/07/16 06:43:31;;;;;;;2.58;1.60;;;;;;;20.08;60.87;102026.31;3600344;39;20067;-64
2022/07/16 06:45:56;;;;;;;2.33;1.58;;;;;;;20.22;59.58;102034.22;3601751;39;20313;-64
2022/07/16 06:48:22;;;;;;;3.80;1.77;;;;;;;20.30;58.64;102033.59;3601025;39;20109;-64
2022/07/16 06:50:49;;;;;;;2.45;1.40;;;;;;;20.24;57.83;102032.22;3602654;39;20680;-65
2022/07/16 06:53:15;;;;;;;4.03;2.00;;;;;;;20.24;58.76;102039.56;3601562;39;20053;-64
2022/07/16 06:55:40;;;;;;;4.25;1.52;;;;;;;20.27;58.87;102036.56;3599780;39;20072;-64
2022/07/16 06:58:06;;;;;;;4.32;1.65;;;;;;;20.33;57.02;102046.94;3602491;39;20108;-62
2022/07/16 07:00:31;;;;;;;5.47;1.60;;;;;;;20.39;56.94;102052.78;3600030;39;20373;-62
2022/07/16 07:02:57;;;;;;;3.38;1.40;;;;;;;20.54;54.42;102053.38;3599735;39;20059;-63
2022/07/16 07:05:23;;;;;;;2.53;1.38;;;;;;;20.73;54.33;102063.63;3600706;39;20066;-64
2022/07/16 07:07:48;;;;;;;2.65;1.60;;;;;;;20.87;54.10;102062.44;3601055;39;20063;-62
2022/07/16 07:10:14;;;;;;;1.30;0.93;;;;;;;20.91;53.55;102063.06;3601304;39;20060;-63
2022/07/16 07:12:40;;;;;;;2.30;1.40;;;;;;;20.83;53.04;102059.09;3585380;39;20390;-65
2022/07/16 07:15:06;;;;;;;2.38;1.13;;;;;;;21.02;52.77;102077.50;3600165;39;20124;-64
2022/07/16 07:17:31;;;;;;;3.45;1.08;;;;;;;21.13;51.58;102079.34;3599263;39;20063;-64
2022/07/16 07:19:57;;;;;;;2.55;1.10;;;;;;;21.20;51.38;102079.66;3601582;39;20494;-64
2022/07/16 07:22:23;;;;;;;1.33;0.85;;;;;;;21.39;50.07;102077.06;3600158;39;20356;-62
2022/07/16 07:24:49;;;;;;;2.97;1.05;;;;;;;21.41;48.19;102061.41;3599323;39;20398;-63
2022/07/16 07:27:18;;;;;;;1.98;1.10;;;;;;;21.81;46.50;102084.34;3587612;39;20040;-63
2022/07/16 07:29:44;;;;;;;2.60;1.15;;;;;;;21.70;47.47;102041.53;3599243;39;20051;-63
2022/07/16 07:32:10;;;;;;;3.28;1.00;;;;;;;22.00;46.20;102085.28;3602376;39;20047;-62
2022/07/16 07:34:35;;;;;;;2.33;0.85;;;;;;;21.99;46.07;102089.03;3599783;39;20338;-64
2022/07/16 07:37:01;;;;;;;2.67;1.10;;;;;;;22.09;47.11;102088.22;3602214;39;20054;-64
2022/07/16 07:39:26;;;;;;;1.25;0.98;;;;;;;22.14;47.35;102083.19;3600857;39;20379;-64
2022/07/16 07:41:52;;;;;;;1.50;1.20;;;;;;;22.21;46.29;102087.13;3601943;39;20047;-64
2022/07/16 07:44:17;;;;;;;2.28;1.13;;;;;;;22.22;46.04;102077.88;3599213;39;20065;-64
2022/07/16 07:46:43;;;;;;;3.70;1.25;;;;;;;22.39;45.06;102068.09;3590389;39;20052;-65
2022/07/16 07:49:10;;;;;;;2.33;0.90;;;;;;;22.58;44.16;102091.94;3601052;39;20377;-64
2022/07/16 07:51:37;;;;;;;2.28;1.25;;;;;;;22.60;45.12;102092.66;3601252;39;20052;-64
2022/07/16 07:54:02;;;;;;;2.92;1.33;;;;;;;22.70;44.36;102099.03;3601393;39;20177;-64
2022/07/16 07:56:28;;;;;;;3.95;2.35;;;;;;;22.67;44.94;102094.69;3600467;39;20059;-65
2022/07/16 07:58:53;;;;;;;4.38;1.88;;;;;;;22.61;44.87;102100.78;3598504;39;20051;-64
2022/07/16 08:01:19;;;;;;;4.93;2.80;;;;;;;22.73;45.13;102104.22;3600351;39;20290;-64
2022/07/16 08:03:44;;;;;;;3.85;1.50;;;;;;;22.82;43.92;102106.09;3599819;39;20056;-64
2022/07/16 08:06:10;;;;;;;2.10;1.13;;;;;;;22.87;44.37;102089.25;3599197;39;20055;-64
2022/07/16 08:08:36;;;;;;;4.60;1.50;;;;;;;23.08;45.60;102113.78;3597169;39;20086;-64
2022/07/16 08:11:01;;;;;;;5.40;1.70;;;;;;;23.18;44.73;102111.88;3595970;39;20047;-63
2022/07/16 08:13:27;;;;;;;3.92;1.63;;;;;;;23.15;44.42;102120.41;3600927;39;20055;-63
2022/07/16 08:15:52;;;;;;;1.83;1.17;;;;;;;23.17;43.56;102123.88;3601104;39;20132;-64
2022/07/16 08:18:18;;;;;;;3.33;1.27;;;;;;;23.17;43.09;102119.25;3586023;39;20044;-65
2022/07/16 08:20:43;;;;;;;2.90;1.30;;;;;;;23.19;44.25;102124.63;3600253;39;20108;-65
2022/07/16 08:23:09;;;;;;;2.17;0.93;;;;;;;22.72;43.73;102031.22;3600816;39;20056;-63
2022/07/16 08:25:44;;;;;;;3.15;1.50;;;;;;;23.32;44.64;102122.44;3600689;39;20544;-64
2022/07/16 08:28:09;;;;;;;1.25;1.00;;;;;;;23.25;43.96;102092.97;3597376;39;20109;-64
2022/07/16 08:30:35;;;;;;;4.05;1.52;;;;;;;23.74;43.92;102141.28;3600566;39;20796;-64
2022/07/16 08:33:01;;;;;;;3.30;1.25;;;;;;;23.93;43.10;102139.50;3601516;39;20059;-64
2022/07/16 08:35:27;;;;;;;3.90;1.33;;;;;;;24.02;42.53;102141.34;3596073;39;20044;-66
2022/07/16 08:37:52;;;;;;;2.70;1.80;;;;;;;24.17;41.39;102139.84;3601135;39;20048;-65
2022/07/16 08:40:22;;;;;;;2.40;1.38;;;;;;;24.31;40.18;102143.94;3600468;39;20054;-66
2022/07/16 08:42:51;;;;;;;2.15;1.20;;;;;;;24.36;40.48;102147.13;3597008;39;20086;-65
2022/07/16 08:45:22;;;;;;;2.75;1.65;;;;;;;24.39;40.14;102151.41;3599403;39;20051;-65
2022/07/16 08:47:50;;;;;;;3.20;1.40;;;;;;;24.65;39.86;102152.47;3599158;39;20133;-65
2022/07/16 08:50:16;;;;;;;1.70;1.10;;;;;;;24.86;38.43;102157.66;3597557;39;20047;-65
2022/07/16 08:53:02;;;;;;;3.28;1.40;;;;;;;25.00;38.22;102154.38;3580560;39;20080;-65
2022/07/16 08:55:29;;;;;;;3.47;1.33;;;;;;;25.12;39.46;102160.56;3596224;39;20055;-65
2022/07/16 08:57:58;;;;;;;2.30;1.27;;;;;;;25.14;38.69;102155.72;3596499;39;20106;-65
2022/07/16 09:00:23;;;;;;;2.35;1.25;;;;;;;25.13;38.32;102158.66;3598908;39;20149;-65
2022/07/16 09:02:49;;;;;;;2.90;1.23;;;;;;;25.31;37.97;102172.38;3595229;39;20047;-65
2022/07/16 09:05:15;;;;;;;2.42;1.10;;;;;;;25.55;37.79;102172.59;3598266;39;20051;-66
2022/07/16 09:07:41;;;;;;;2.05;1.20;;;;;;;25.37;36.93;102171.75;3602253;39;20145;-65
2022/07/16 09:10:09;;;;;;;2.45;1.30;;;;;;;25.04;37.48;102176.94;3600515;39;20047;-66
2022/07/16 09:12:47;;;;;;;1.88;1.20;;;;;;;25.01;37.73;102158.00;3597131;39;20180;-64
2022/07/16 09:15:32;;;;;;;3.80;1.40;;;;;;;25.15;36.44;102181.34;3595886;39;20047;-64
2022/07/16 09:18:15;;;;;;;2.42;1.10;;;;;;;24.91;37.81;102176.47;3601573;39;20341;-64
2022/07/16 09:20:47;;;;;;;2.93;1.40;;;;;;;24.94;37.29;102181.66;3600642;39;20095;-64
2022/07/16 09:23:41;;;;;;;1.92;1.02;;;;;;;25.22;36.58;102183.34;3592125;39;20072;-64
2022/07/16 09:26:11;;;;;;;2.65;1.27;;;;;;;25.50;36.16;102191.50;3597974;39;20140;-64
2022/07/16 09:28:50;;;;;;;2.97;1.13;;;;;;;25.73;35.13;102182.72;3600808;39;20060;-63
2022/07/16 09:31:40;;;;;;;1.92;1.10;;;;;;;25.94;36.25;102185.97;3600457;39;20058;-65
2022/07/16 09:34:13;;;;;;;21.77;15.07;;;;;;;26.00;34.56;102185.31;3600996;39;20047;-65
2022/07/16 09:36:54;;;;;;;5.03;2.80;;;;;;;26.29;33.83;102186.84;3602230;39;20047;-65
2022/07/16 09:39:20;;;;;;;5.03;1.85;;;;;;;25.92;33.60;102190.81;3588099;39;20063;-65
2022/07/16 09:41:47;;;;;;;2.53;1.50;;;;;;;25.63;34.14;102182.81;3602744;39;20378;-65
2022/07/16 09:44:20;;;;;;;3.25;1.98;;;;;;;25.84;34.87;102193.50;3600444;39;20059;-63
2022/07/16 09:47:03;;;;;;;2.33;1.10;;;;;;;26.02;33.78;102188.78;3601247;39;20051;-65
2022/07/16 09:49:36;;;;;;;5.10;1.30;;;;;;;26.14;33.95;102198.50;3598340;39;20297;-64
2022/07/16 09:52:06;;;;;;;;;;;;;;;26.27;33.83;102208.22;3603063;39;20051;-64
2022/07/16 09:54:38;;;;;;;3.97;1.30;;;;;;;25.92;33.99;102202.69;3600999;39;20007;-65
2022/07/16 09:57:18;;;;;;;9.55;6.05;;;;;;;25.58;34.53;102208.06;3599701;39;20367;-64
2022/07/16 09:59:46;;;;;;;3.78;1.67;;;;;;;25.77;34.96;102207.00;3601281;39;20062;-64
2022/07/16 10:02:13;;;;;;;5.07;1.20;;;;;;;25.73;34.31;102204.75;3599153;39;20380;-65
2022/07/16 10:04:40;;;;;;;3.00;1.10;;;;;;;25.83;35.22;102203.66;3602758;39;20067;-65
2022/07/16 10:07:06;;;;;;;1.55;1.02;;;;;;;25.97;34.76;102210.44;3597691;39;20047;-64
2022/07/16 10:09:33;;;;;;;5.00;1.42;;;;;;;26.32;34.27;102222.38;3601182;39;20051;-66
2022/07/16 10:12:10;;;;;;;3.15;1.48;;;;;;;26.54;33.50;102183.19;3599874;39;20044;-64
2022/07/16 10:14:42;;;;;;;14.38;9.48;;;;;;;27.00;32.44;102210.41;3600809;39;20052;-64
2022/07/16 10:17:21;;;;;;;4.38;0.90;;;;;;;27.17;31.57;102205.81;3591796;39;20099;-65
2022/07/16 10:20:08;;;;;;;11.48;7.78;;;;;;;26.92;32.30;102219.53;3599683;39;20091;-64
2022/07/16 10:22:46;;;;;;;2.83;1.80;;;;;;;26.83;29.77;102217.78;3599226;39;20141;-64
2022/07/16 10:25:24;;;;;;;1.88;1.13;;;;;;;26.53;30.33;102236.63;3598202;39;20074;-65
2022/07/16 10:27:52;;;;;;;2.13;1.13;;;;;;;26.56;32.47;102233.56;3599599;39;20314;-64
2022/07/16 10:30:22;;;;;;;2.50;1.33;;;;;;;26.68;31.37;102233.28;3601328;39;20068;-64
2022/07/16 10:32:59;;;;;;;3.38;1.25;;;;;;;26.73;30.54;102230.84;3599568;39;20051;-65
2022/07/16 10:35:30;;;;;;;2.05;1.20;;;;;;;26.73;33.11;102231.72;3600205;39;20076;-65
2022/07/16 10:38:10;;;;;;;7.10;1.67;;;;;;;26.76;31.30;102236.03;3599942;39;20156;-65
2022/07/16 10:40:39;;;;;;;2.78;1.50;;;;;;;26.87;32.37;102230.22;3600256;39;20119;-64
2022/07/16 10:43:21;;;;;;;1.55;1.05;;;;;;;27.11;31.65;102215.59;3602131;39;20051;-64
2022/07/16 10:45:58;;;;;;;3.40;1.23;;;;;;;27.26;31.55;102232.41;3597468;39;20051;-64
2022/07/16 10:48:51;;;;;;;3.30;1.65;;;;;;;27.63;30.54;102234.69;3600259;39;20352;-65
2022/07/16 10:51:22;;;;;;;3.10;1.20;;;;;;;27.68;30.64;102231.38;3600032;39;20055;-65
2022/07/16 10:53:57;;;;;;;3.50;1.33;;;;;;;27.71;30.77;102231.88;3599852;39;20059;-65
2022/07/16 10:56:32;;;;;;;1.50;0.85;;;;;;;27.89;30.93;102234.50;3601476;39;20228;-64
2022/07/16 10:58:58;;;;;;;4.22;2.28;;;;;;;27.83;31.26;102240.72;3601531;39;20059;-64
2022/07/16 11:01:25;;;;;;;11.18;1.40;;;;;;;27.29;31.55;102245.88;3589485;39;20098;-64
2022/07/16 11:03:52;;;;;;;2.63;1.08;;;;;;;26.88;32.29;102240.22;3601382;39;20047;-64
2022/07/16 11:06:22;;;;;;;4.10;1.30;;;;;;;26.86;30.14;102247.78;3600514;39;20051;-64
2022/07/16 11:09:04;;;;;;;2.53;1.10;;;;;;;26.55;31.36;102244.78;3600633;39;20137;-65
2022/07/16 11:11:39;;;;;;;1.80;1.20;;;;;;;26.55;32.46;102245.63;3600068;39;20079;-65
2022/07/16 11:14:07;;;;;;;2.72;1.20;;;;;;;26.93;30.63;102237.84;3601906;39;20325;-64
2022/07/16 11:16:34;;;;;;;3.25;1.25;;;;;;;26.79;32.04;102246.75;3601042;39;20428;-64
2022/07/16 11:19:02;;;;;;;2.50;1.40;;;;;;;26.20;33.61;102231.94;3601049;39;20050;-64
2022/07/16 11:21:27;;;;;;;2.35;1.20;;;;;;;25.85;33.31;102247.59;3599668;39;20093;-64
2022/07/16 11:23:59;;;;;;;3.78;1.42;;;;;;;25.55;34.21;102248.84;3600192;39;20395;-64
2022/07/16 11:26:26;;;;;;;2.53;1.27;;;;;;;25.97;33.30;102257.28;3597797;39;20055;-64
2022/07/16 11:29:02;;;;;;;2.83;1.15;;;;;;;26.23;31.96;102253.66;3600664;39;20055;-64
2022/07/16 11:31:37;;;;;;;3.00;1.02;;;;;;;26.34;32.19;102251.50;3600823;39;20070;-65
2022/07/16 11:34:12;;;;;;;3.13;1.33;;;;;;;26.98;31.09;102237.31;3601732;39;20059;-65
2022/07/16 11:36:41;;;;;;;4.43;1.50;;;;;;;26.97;32.19;102250.25;3599026;39;20087;-64